Time;durP1;ratioP1;P1;durP2;ratioP2;P2;SDS_P1;SDS_P2;PMS_P1;PMS_P2;Temp;Humidity;BMP_temperature;BMP_pressure;BME280_temperature;BME280_humidity;BME280_pressure;Samples;Min_cycle;Max_cycle;Signal;HPM_P1;HPM_P2
2023/01/18 00:03:46;;;;;;;94.80;39.50;;;;;;;2.72;90.59;96015.98;221217;1281;25601;-75
2023/01/18 00:08:48;;;;;;;96.50;36.50;;;;;;;2.71;90.84;96018.18;221300;1281;24266;-75
2023/01/18 00:13:56;;;;;;;94.40;39.30;;;;;;;2.71;90.80;96011.35;221220;1281;22684;-74
2023/01/18 00:18:59;;;;;;;107.80;42.50;;;;;;;2.73;91.02;96006.21;221158;1281;25316;-74
2023/01/18 00:24:09;;;;;;;94.20;39.20;;;;;;;2.78;91.19;96000.91;221355;1281;22537;-75
2023/01/18 00:29:11;;;;;;;115.40;43.70;;;;;;;2.77;91.00;96003.48;221289;1279;22546;-74
2023/01/18 00:34:14;;;;;;;78.50;37.10;;;;;;;2.75;91.16;96000.88;221236;1281;22534;-75
2023/01/18 00:39:16;;;;;;;71.70;34.80;;;;;;;2.69;91.00;95997.25;221173;1260;22548;-74
2023/01/18 00:44:18;;;;;;;72.80;32.20;;;;;;;2.64;91.21;95990.88;221264;1281;22606;-75
2023/01/18 00:49:21;;;;;;;80.10;36.40;;;;;;;2.62;91.61;95981.13;221273;1266;25473;-74
2023/01/18 00:54:23;;;;;;;96.40;41.90;;;;;;;2.61;91.91;95963.52;221174;1281;23445;-74
2023/01/18 00:59:25;;;;;;;117.40;51.40;;;;;;;2.55;92.06;95956.42;221352;1269;25423;-75
2023/01/18 01:09:48;;;;;;;74.70;34.20;;;;;;;2.46;92.78;95933.88;220975;1282;25506;-75
2023/01/18 01:31:00;;;;;;;69.70;33.40;;;;;;;2.19;94.06;95937.48;221229;1281;24361;-75
2023/01/18 01:36:06;;;;;;;48.50;22.50;;;;;;;2.20;94.25;95933.86;221319;1281;22886;-75
2023/01/18 01:41:25;;;;;;;43.00;20.20;;;;;;;2.15;94.32;95933.19;221179;1263;22583;-74
2023/01/18 01:46:33;;;;;;;44.60;22.90;;;;;;;2.13;94.60;95934.73;221225;1279;22553;-75
2023/01/18 01:51:40;;;;;;;51.80;25.80;;;;;;;2.11;94.86;95926.29;221191;1281;25532;-74
2023/01/18 01:56:45;;;;;;;37.30;19.10;;;;;;;2.09;95.20;95927.70;221252;1281;22601;-75
2023/01/18 02:01:50;;;;;;;35.00;15.30;;;;;;;2.10;95.39;95935.08;221231;1279;25368;-76
2023/01/18 02:06:52;;;;;;;38.30;18.10;;;;;;;2.08;95.54;95937.43;221194;1279;23216;-75
2023/01/18 02:11:54;;;;;;;43.10;20.80;;;;;;;2.04;95.70;95945.62;221294;1281;25408;-76
2023/01/18 02:17:22;;;;;;;33.80;17.50;;;;;;;2.01;95.95;95945.07;221171;1279;22557;-75
2023/01/18 02:22:43;;;;;;;35.90;21.20;;;;;;;1.99;96.19;95943.73;221320;1281;25266;-75
2023/01/18 02:27:54;;;;;;;32.40;17.90;;;;;;;2.00;96.36;95947.77;221533;1281;22576;-76
2023/01/18 02:33:09;;;;;;;35.30;17.50;;;;;;;1.99;96.68;95942.52;221229;1281;22561;-75
2023/01/18 02:38:34;;;;;;;30.50;17.80;;;;;;;1.97;96.77;95936.60;221094;1276;22533;-75
2023/01/18 02:49:05;;;;;;;45.80;22.20;;;;;;;1.89;96.98;95920.65;221106;1274;25495;-75
2023/01/18 02:54:10;;;;;;;33.70;17.70;;;;;;;1.87;97.35;95930.45;221243;1281;22551;-75
2023/01/18 02:59:40;;;;;;;46.20;23.40;;;;;;;1.88;97.49;95941.89;221206;1281;24283;-76
2023/01/18 03:04:52;;;;;;;33.00;16.90;;;;;;;1.87;97.66;95941.85;221407;1281;24283;-75
2023/01/18 03:09:57;;;;;;;32.70;16.10;;;;;;;1.84;97.66;95941.40;221375;1279;24247;-75
2023/01/18 03:15:13;;;;;;;43.80;19.80;;;;;;;1.84;97.89;95934.80;221260;1280;23318;-74
2023/01/18 03:20:18;;;;;;;45.70;21.50;;;;;;;1.80;97.83;95933.54;221018;1281;24206;-75
2023/01/18 03:25:29;;;;;;;34.50;17.70;;;;;;;1.75;97.97;95925.09;221229;1268;24481;-75
2023/01/18 03:35:56;;;;;;;37.40;19.80;;;;;;;1.67;98.22;95908.92;221108;1280;22548;-76
2023/01/18 03:41:09;;;;;;;36.10;19.10;;;;;;;1.59;98.11;95871.68;221665;1281;22687;-75
2023/01/18 03:46:22;;;;;;;42.70;20.30;;;;;;;1.50;98.43;95820.45;221201;1281;22551;-75
2023/01/18 03:51:30;;;;;;;34.30;18.20;;;;;;;1.46;98.63;95789.36;222277;1281;25439;-77
2023/01/18 03:56:48;;;;;;;54.50;27.30;;;;;;;1.36;98.55;95778.59;221990;1264;22556;-75
2023/01/18 04:01:51;;;;;;;49.60;25.20;;;;;;;1.26;98.79;95772.98;221361;1281;22468;-76
2023/01/18 04:06:56;;;;;;;52.80;24.90;;;;;;;1.20;99.04;95806.42;222705;1274;22554;-76
2023/01/18 04:11:58;;;;;;;46.10;23.50;;;;;;;1.14;98.87;95842.14;223406;1281;23128;-76
2023/01/18 04:17:09;;;;;;;42.20;23.70;;;;;;;1.14;99.27;95845.84;224015;1281;22546;-76
2023/01/18 04:22:14;;;;;;;45.40;21.80;;;;;;;1.15;99.49;95858.63;223942;1281;25543;-76
2023/01/18 04:27:20;;;;;;;35.30;16.00;;;;;;;1.17;99.54;95857.38;222817;1262;22628;-76
2023/01/18 04:32:27;;;;;;;39.90;18.90;;;;;;;1.20;99.78;95842.16;222363;1281;25357;-77
2023/01/18 04:37:33;;;;;;;50.70;24.30;;;;;;;1.27;99.79;95829.61;221795;1280;25397;-77
2023/01/18 04:42:36;;;;;;;59.20;27.30;;;;;;;1.29;99.85;95820.59;221692;1281;22670;-77
2023/01/18 04:47:42;;;;;;;65.10;32.10;;;;;;;1.29;99.95;95820.39;222583;1265;22660;-77
2023/01/18 04:52:49;;;;;;;58.80;25.70;;;;;;;1.31;100.00;95837.22;222832;1281;22467;-77
2023/01/18 04:57:57;;;;;;;48.90;21.80;;;;;;;1.33;100.00;95837.73;221967;1262;22935;-76
2023/01/18 05:02:59;;;;;;;50.20;23.50;;;;;;;1.33;100.00;95848.98;221297;1274;23952;-77
2023/01/18 05:08:02;;;;;;;55.90;23.90;;;;;;;1.32;100.00;95852.58;221360;1281;24169;-77
2023/01/18 05:13:04;;;;;;;57.50;25.60;;;;;;;1.34;100.00;95856.56;221420;1279;22541;-77
2023/01/18 05:18:07;;;;;;;60.50;25.80;;;;;;;1.36;100.00;95841.59;221228;1280;22579;-76
2023/01/18 05:23:09;;;;;;;55.50;23.60;;;;;;;1.36;100.00;95840.25;221425;1273;22534;-77
2023/01/18 05:28:11;;;;;;;54.40;22.00;;;;;;;1.36;100.00;95836.84;221444;1281;22545;-75
2023/01/18 05:33:14;;;;;;;49.10;22.30;;;;;;;1.34;100.00;95839.61;221173;1280;22551;-76
2023/01/18 05:38:16;;;;;;;52.80;21.40;;;;;;;1.32;100.00;95847.37;221125;1280;22563;-76
2023/01/18 05:43:24;;;;;;;53.90;21.90;;;;;;;1.32;100.00;95859.27;221465;1270;25331;-76
2023/01/18 05:48:26;;;;;;;49.50;20.60;;;;;;;1.33;100.00;95863.50;221404;1281;22554;-77
2023/01/18 05:53:28;;;;;;;34.30;15.20;;;;;;;1.34;100.00;95853.95;221189;1275;22554;-77
2023/01/18 05:58:33;;;;;;;31.40;15.90;;;;;;;1.34;100.00;95850.32;221236;1267;22609;-76
2023/01/18 06:03:35;;;;;;;36.60;17.60;;;;;;;1.34;100.00;95837.57;221296;1280;22553;-75
2023/01/18 06:08:41;;;;;;;28.20;14.70;;;;;;;1.37;100.00;95825.41;221482;1257;25447;-77
2023/01/18 06:13:43;;;;;;;31.50;14.10;;;;;;;1.39;100.00;95824.23;221152;1270;25496;-77
2023/01/18 06:18:45;;;;;;;37.00;17.90;;;;;;;1.36;100.00;95830.88;221094;1281;22546;-76
2023/01/18 06:23:50;;;;;;;40.10;17.40;;;;;;;1.39;100.00;95846.63;221234;1281;25429;-76
2023/01/18 06:28:52;;;;;;;39.30;18.10;;;;;;;1.41;100.00;95869.55;221391;1281;22541;-77
2023/01/18 06:33:54;;;;;;;41.00;19.70;;;;;;;1.42;100.00;95881.53;221181;1265;23740;-77
2023/01/18 06:38:56;;;;;;;40.90;21.00;;;;;;;1.44;100.00;95876.42;221020;1281;23487;-77
2023/01/18 06:43:59;;;;;;;55.40;23.80;;;;;;;1.47;100.00;95872.14;221502;1267;23837;-76
2023/01/18 06:49:00;;;;;;;41.80;20.70;;;;;;;1.48;100.00;95868.79;221661;1259;23314;-77
2023/01/18 06:54:05;;;;;;;40.90;19.60;;;;;;;1.50;100.00;95872.59;222152;1259;22562;-76
2023/01/18 06:59:07;;;;;;;47.70;21.70;;;;;;;1.54;100.00;95871.95;221756;1273;22587;-76
2023/01/18 07:04:10;;;;;;;47.80;20.80;;;;;;;1.59;100.00;95871.06;221747;1259;25224;-77
2023/01/18 07:09:13;;;;;;;50.20;20.90;;;;;;;1.62;100.00;95877.39;221729;1273;22547;-76
2023/01/18 07:14:15;;;;;;;32.10;16.50;;;;;;;1.65;100.00;95878.37;222105;1259;25945;-76
2023/01/18 07:19:18;;;;;;;32.60;16.70;;;;;;;1.64;100.00;95882.64;222387;1266;22586;-77
2023/01/18 07:24:21;;;;;;;47.70;21.30;;;;;;;1.65;100.00;95888.02;222455;1262;22618;-77
2023/01/18 07:29:26;;;;;;;47.70;21.60;;;;;;;1.71;100.00;95896.84;222375;1273;22537;-76
2023/01/18 07:34:28;;;;;;;32.70;17.20;;;;;;;1.75;100.00;95892.00;222153;1276;22543;-77
2023/01/18 07:39:30;;;;;;;40.20;20.10;;;;;;;1.79;100.00;95895.23;222101;1273;22548;-75
2023/01/18 07:44:32;;;;;;;35.60;16.10;;;;;;;1.84;100.00;95896.20;221404;1262;22561;-76
2023/01/18 07:49:34;;;;;;;61.60;26.00;;;;;;;1.91;100.00;95891.86;221792;1273;22629;-75
2023/01/18 07:54:37;;;;;;;59.80;24.60;;;;;;;1.97;100.00;95886.64;221739;1267;23220;-76
2023/01/18 07:59:40;;;;;;;47.40;20.10;;;;;;;2.00;100.00;95884.23;221802;1273;23015;-76
2023/01/18 08:04:44;;;;;;;49.30;21.40;;;;;;;2.02;100.00;95902.52;221533;1259;172188;-76
2023/01/18 08:09:46;;;;;;;46.20;20.80;;;;;;;2.02;100.00;95919.63;221675;1273;22614;-76
2023/01/18 08:14:48;;;;;;;51.90;23.00;;;;;;;2.03;100.00;95926.90;221785;1264;24206;-76
2023/01/18 08:19:50;;;;;;;46.60;19.70;;;;;;;2.06;100.00;95913.88;221570;1266;22547;-76
2023/01/18 08:24:53;;;;;;;32.10;16.80;;;;;;;2.11;100.00;95892.59;221466;1273;22513;-76
2023/01/18 08:29:56;;;;;;;49.10;22.20;;;;;;;2.12;100.00;95892.29;221825;1258;22534;-75
2023/01/18 08:34:59;;;;;;;41.40;19.80;;;;;;;2.17;100.00;95898.45;221336;1259;22558;-75
2023/01/18 08:40:01;;;;;;;41.30;18.60;;;;;;;2.24;100.00;95918.34;221715;1273;24287;-76
2023/01/18 08:45:04;;;;;;;31.00;14.30;;;;;;;2.25;100.00;95926.61;221507;1265;24413;-74
2023/01/18 08:50:09;;;;;;;32.70;14.20;;;;;;;2.25;100.00;95923.75;221431;1262;25450;-75
2023/01/18 08:55:15;;;;;;;28.10;13.20;;;;;;;2.22;100.00;95912.67;221688;1267;24505;-75
2023/01/18 09:00:17;;;;;;;41.30;18.40;;;;;;;2.21;100.00;95927.50;221876;1265;25270;-75
2023/01/18 09:05:20;;;;;;;37.30;14.40;;;;;;;2.24;100.00;95943.48;221764;1266;23394;-75
2023/01/18 09:10:22;;;;;;;37.30;15.50;;;;;;;2.23;100.00;95956.41;221927;1259;24099;-77
2023/01/18 09:15:25;;;;;;;54.30;20.10;;;;;;;2.20;100.00;95963.30;222178;1264;22631;-76
2023/01/18 09:20:28;;;;;;;44.20;17.10;;;;;;;2.21;100.00;95967.86;221951;1273;22579;-75
2023/01/18 09:25:36;;;;;;;47.50;18.90;;;;;;;2.11;100.00;95975.75;221608;1266;25448;-78
2023/01/18 09:30:38;;;;;;;65.90;25.40;;;;;;;2.04;100.00;95982.17;221479;1274;22596;-75
2023/01/18 09:35:40;;;;;;;68.50;26.20;;;;;;;2.01;100.00;95983.77;221529;1264;22682;-76
2023/01/18 09:40:44;;;;;;;61.40;22.60;;;;;;;1.95;100.00;95980.94;221597;1259;24230;-75
2023/01/18 09:45:47;;;;;;;59.70;22.30;;;;;;;1.86;100.00;95983.33;221594;1281;25592;-75
2023/01/18 09:50:52;;;;;;;59.80;23.10;;;;;;;1.87;100.00;95980.56;221732;1265;23772;-75
2023/01/18 09:56:01;;;;;;;51.20;21.40;;;;;;;1.86;100.00;95992.09;221733;1259;25692;-76
2023/01/18 10:01:10;;;;;;;32.20;14.70;;;;;;;1.87;100.00;96002.11;221716;1274;22531;-74
2023/01/18 10:06:48;;;;;;;47.00;17.90;;;;;;;1.85;100.00;96019.81;221727;1259;24241;-75
2023/01/18 10:11:58;;;;;;;31.70;13.80;;;;;;;1.87;100.00;96039.43;221676;1265;22750;-75
2023/01/18 10:17:13;;;;;;;32.90;14.00;;;;;;;1.91;100.00;96050.76;221889;1269;22601;-75
2023/01/18 10:22:25;;;;;;;40.30;16.20;;;;;;;1.93;100.00;96056.41;221859;1270;22504;-76
2023/01/18 10:27:36;;;;;;;38.50;15.60;;;;;;;2.06;100.00;96059.86;222100;1258;22614;-76
2023/01/18 10:32:46;;;;;;;41.20;17.30;;;;;;;2.18;100.00;96061.15;222034;1265;22682;-76
2023/01/18 10:37:50;;;;;;;42.10;18.10;;;;;;;2.26;100.00;96067.48;221741;1262;25448;-75
2023/01/18 10:42:59;;;;;;;28.50;13.50;;;;;;;2.24;100.00;96076.14;221515;1262;22521;-74
2023/01/18 10:48:17;;;;;;;23.90;11.80;;;;;;;2.09;100.00;96090.27;221942;1275;23183;-74
2023/01/18 10:53:34;;;;;;;16.40;9.10;;;;;;;1.97;100.00;96102.25;221635;1275;22828;-75
2023/01/18 10:58:58;;;;;;;17.40;9.40;;;;;;;1.81;100.00;96105.77;221616;1262;23287;-75
2023/01/18 11:04:06;;;;;;;18.60;8.90;;;;;;;1.77;100.00;96107.98;221815;1273;25743;-74
2023/01/18 11:09:47;;;;;;;18.20;8.90;;;;;;;1.77;100.00;96112.08;221515;1262;22601;-75
2023/01/18 11:14:49;;;;;;;;;;;;;;;1.88;100.00;96113.70;222035;1261;22579;-75
2023/01/18 11:20:06;;;;;;;15.70;8.00;;;;;;;1.86;100.00;96109.15;221633;1273;22578;-75
2023/01/18 11:25:16;;;;;;;19.30;9.50;;;;;;;1.87;100.00;96112.55;222136;1273;22537;-75
2023/01/18 11:30:21;;;;;;;21.30;10.60;;;;;;;1.91;100.00;96128.16;221731;1275;25501;-75
2023/01/18 11:35:31;;;;;;;21.30;10.90;;;;;;;2.01;100.00;96134.75;221620;1278;24353;-75
2023/01/18 11:40:34;;;;;;;29.80;13.90;;;;;;;2.06;100.00;96144.27;221091;1277;23909;-76
2023/01/18 11:45:47;;;;;;;28.70;12.50;;;;;;;2.03;100.00;96147.91;221697;1268;22550;-75
2023/01/18 11:50:58;;;;;;;30.40;14.80;;;;;;;1.94;100.00;96156.98;222064;1270;25357;-74
2023/01/18 11:56:08;;;;;;;32.60;13.70;;;;;;;1.90;100.00;96160.02;221871;1272;22578;-76
2023/01/18 12:01:29;;;;;;;;;;;;;;;1.85;100.00;96162.27;221628;1262;22532;-75
2023/01/18 12:06:53;;;;;;;39.50;16.10;;;;;;;1.86;100.00;96169.07;221427;1273;22609;-75
2023/01/18 12:12:20;;;;;;;32.10;14.40;;;;;;;1.86;100.00;96175.08;221671;1268;22544;-74
2023/01/18 12:17:36;;;;;;;27.70;13.00;;;;;;;1.83;100.00;96193.20;221558;1274;22536;-74
2023/01/18 12:23:16;;;;;;;29.20;12.80;;;;;;;1.84;100.00;96203.02;221653;1267;22610;-76
2023/01/18 12:28:37;;;;;;;25.50;12.10;;;;;;;1.77;100.00;96219.77;221948;1281;22555;-75
2023/01/18 12:33:46;;;;;;;28.00;13.20;;;;;;;1.71;100.00;96234.14;221612;1275;22636;-75
2023/01/18 12:38:52;;;;;;;25.00;11.90;;;;;;;1.67;100.00;96240.23;221610;1274;22683;-74
2023/01/18 12:44:21;;;;;;;24.80;12.70;;;;;;;1.64;100.00;96257.23;221675;1274;22625;-75
2023/01/18 12:49:27;;;;;;;24.80;11.80;;;;;;;1.62;100.00;96271.46;221396;1274;23942;-76
2023/01/18 12:54:35;;;;;;;20.60;11.70;;;;;;;1.63;100.00;96282.11;221477;1274;25350;-76
2023/01/18 12:59:51;;;;;;;20.40;9.60;;;;;;;1.67;100.00;96294.43;221850;1274;22690;-75
2023/01/18 13:05:09;;;;;;;20.90;11.60;;;;;;;1.71;100.00;96299.91;221894;1274;22536;-75
2023/01/18 13:10:23;;;;;;;22.40;11.70;;;;;;;1.76;100.00;96305.48;221743;1269;23758;-75
2023/01/18 13:16:08;;;;;;;24.80;12.80;;;;;;;1.81;100.00;96314.89;221715;1273;24407;-75
2023/01/18 13:21:38;;;;;;;24.00;13.30;;;;;;;1.92;100.00;96321.20;221494;1262;22532;-75
2023/01/18 13:26:41;;;;;;;26.40;13.90;;;;;;;2.10;100.00;96328.56;221573;1276;25358;-74
2023/01/18 13:31:45;;;;;;;27.00;13.70;;;;;;;2.30;100.00;96340.11;221717;1274;22744;-72
2023/01/18 13:36:48;;;;;;;24.80;12.90;;;;;;;2.51;100.00;96352.50;221752;1268;22604;-75
2023/01/18 13:42:03;;;;;;;28.80;14.60;;;;;;;2.69;100.00;96360.45;221685;1260;22594;-75
2023/01/18 13:47:44;;;;;;;30.00;12.80;;;;;;;2.77;100.00;96370.64;221542;1270;22797;-75
2023/01/18 13:53:09;;;;;;;30.00;14.00;;;;;;;2.83;100.00;96378.58;221523;1262;22652;-74
2023/01/18 13:58:24;;;;;;;25.50;11.50;;;;;;;2.85;100.00;96388.61;221620;1275;25247;-74
2023/01/18 14:03:32;;;;;;;29.50;13.10;;;;;;;2.86;100.00;96410.61;221783;1275;22545;-74
2023/01/18 14:08:37;;;;;;;28.70;13.60;;;;;;;2.86;100.00;96419.45;221714;1269;22610;-74
2023/01/18 14:13:48;;;;;;;23.40;11.30;;;;;;;2.84;100.00;96434.23;221531;1275;24313;-77
2023/01/18 14:18:56;;;;;;;24.00;11.40;;;;;;;2.82;100.00;96445.16;221569;1273;22539;-74
2023/01/18 14:24:31;;;;;;;21.60;10.60;;;;;;;2.81;100.00;96452.65;221902;1273;22543;-73
2023/01/18 14:29:48;;;;;;;20.30;10.50;;;;;;;2.82;100.00;96471.45;221637;1275;22488;-74
2023/01/18 14:35:03;;;;;;;21.50;10.50;;;;;;;2.84;100.00;96483.48;221687;1273;22673;-74
2023/01/18 14:40:15;;;;;;;21.40;10.50;;;;;;;2.84;100.00;96498.17;221546;1278;22566;-73
2023/01/18 14:45:24;;;;;;;22.80;10.30;;;;;;;2.86;100.00;96507.51;221704;1271;22543;-73
2023/01/18 14:50:31;;;;;;;18.20;10.20;;;;;;;2.90;100.00;96517.30;221780;1262;22547;-73
2023/01/18 14:55:34;;;;;;;17.30;9.10;;;;;;;2.90;100.00;96527.42;221737;1266;24249;-77
2023/01/18 15:00:52;;;;;;;21.30;11.10;;;;;;;2.90;100.00;96536.14;221553;1268;22582;-76
2023/01/18 15:06:11;;;;;;;21.40;11.00;;;;;;;2.89;100.00;96539.80;221517;1275;22585;-75
2023/01/18 15:11:13;;;;;;;23.40;10.80;;;;;;;2.87;100.00;96545.46;221045;1278;22562;-74
2023/01/18 15:16:20;;;;;;;19.10;10.20;;;;;;;2.84;100.00;96554.52;220995;1281;25578;-74
2023/01/18 15:21:35;;;;;;;16.90;9.10;;;;;;;2.81;100.00;96573.91;221141;1278;22855;-74
2023/01/18 15:26:51;;;;;;;18.60;9.70;;;;;;;2.79;100.00;96588.66;221080;1281;25252;-73
2023/01/18 15:32:02;;;;;;;17.00;9.40;;;;;;;2.76;100.00;96600.02;220981;1281;22615;-74
2023/01/18 15:37:10;;;;;;;20.20;10.80;;;;;;;2.72;100.00;96605.79;220978;1281;22651;-74
2023/01/18 15:42:14;;;;;;;17.80;9.50;;;;;;;2.72;100.00;96607.86;221192;1278;22592;-74
2023/01/18 15:47:49;;;;;;;19.10;10.00;;;;;;;2.69;100.00;96618.27;221047;1281;24360;-74
2023/01/18 15:53:04;;;;;;;19.30;9.40;;;;;;;2.66;100.00;96628.40;221120;1281;22777;-73
2023/01/18 15:58:16;;;;;;;19.50;10.00;;;;;;;2.62;100.00;96630.91;220914;1280;22661;-73
2023/01/18 16:03:22;;;;;;;17.00;8.30;;;;;;;2.54;100.00;96639.59;220916;1280;25294;-74
2023/01/18 16:08:24;;;;;;;18.70;9.20;;;;;;;2.46;100.00;96646.64;221035;1281;24502;-74
2023/01/18 16:13:32;;;;;;;16.20;8.90;;;;;;;2.38;100.00;96647.30;221330;1281;24361;-74
2023/01/18 16:18:34;;;;;;;20.20;9.70;;;;;;;2.31;100.00;96651.98;220982;1279;22588;-76
2023/01/18 16:23:42;;;;;;;18.40;9.10;;;;;;;2.27;100.00;96656.13;220873;1281;22553;-74
2023/01/18 16:28:44;;;;;;;19.00;9.90;;;;;;;2.26;100.00;96678.48;221008;1279;24287;-74
2023/01/18 16:33:46;;;;;;;14.90;8.30;;;;;;;2.28;100.00;96692.66;221105;1281;22551;-74
2023/01/18 16:38:49;;;;;;;16.90;8.50;;;;;;;2.31;100.00;96706.89;221235;1281;22530;-74
2023/01/18 16:43:51;;;;;;;17.40;9.00;;;;;;;2.36;100.00;96716.46;221048;1281;22581;-74
2023/01/18 16:48:54;;;;;;;14.30;8.20;;;;;;;2.39;100.00;96729.03;221118;1271;22542;-74
2023/01/18 16:54:00;;;;;;;17.70;9.00;;;;;;;2.41;100.00;96738.36;221011;1281;22566;-74
2023/01/18 16:59:15;;;;;;;19.00;9.80;;;;;;;2.44;100.00;96748.65;221031;1281;22567;-74
2023/01/18 17:04:21;;;;;;;20.90;9.80;;;;;;;2.47;100.00;96757.52;221020;1281;22540;-74
2023/01/18 17:09:26;;;;;;;19.60;9.20;;;;;;;2.46;100.00;96768.10;221019;1281;25423;-74
2023/01/18 17:14:31;;;;;;;21.60;10.90;;;;;;;2.41;100.00;96801.27;220808;1281;22593;-74
2023/01/18 17:19:36;;;;;;;16.20;8.70;;;;;;;2.33;100.00;96817.05;221178;1280;22543;-74
2023/01/18 17:24:39;;;;;;;16.10;8.20;;;;;;;2.26;100.00;96812.17;221073;1280;22552;-74
2023/01/18 17:29:42;;;;;;;16.30;8.60;;;;;;;2.17;100.00;96823.41;221146;1281;22623;-73
2023/01/18 17:34:44;;;;;;;14.20;8.20;;;;;;;2.10;100.00;96822.80;221098;1281;22533;-73
2023/01/18 17:39:46;;;;;;;14.60;7.60;;;;;;;2.06;100.00;96827.97;221071;1274;22604;-74
2023/01/18 17:45:13;;;;;;;18.70;9.70;;;;;;;2.02;100.00;96839.63;221105;1259;23060;-74
2023/01/18 17:50:21;;;;;;;16.00;8.70;;;;;;;2.00;100.00;96844.30;220991;1281;22536;-74
2023/01/18 17:55:25;;;;;;;14.20;7.80;;;;;;;1.98;100.00;96845.28;220847;1281;22489;-74
2023/01/18 18:00:35;;;;;;;18.80;9.30;;;;;;;1.95;100.00;96858.61;221057;1281;22576;-74
2023/01/18 18:05:38;;;;;;;17.80;8.90;;;;;;;1.98;100.00;96871.15;221141;1265;23955;-74
2023/01/18 18:10:42;;;;;;;16.20;9.00;;;;;;;2.02;100.00;96883.42;221079;1280;24285;-74
2023/01/18 18:15:47;;;;;;;16.80;9.10;;;;;;;2.07;100.00;96888.77;221009;1280;23817;-74
2023/01/18 18:21:01;;;;;;;16.90;8.10;;;;;;;2.15;100.00;96893.44;221154;1281;23223;-74
2023/01/18 18:26:04;;;;;;;17.00;8.50;;;;;;;2.23;100.00;96891.10;221086;1281;22662;-75
2023/01/18 18:31:14;;;;;;;15.70;9.00;;;;;;;2.27;100.00;96887.24;220974;1281;24153;-74
2023/01/18 18:36:16;;;;;;;;;;;;;;;2.26;100.00;96892.74;221074;1281;25350;-73
2023/01/18 18:41:18;;;;;;;16.00;8.30;;;;;;;2.17;100.00;96900.77;221047;1281;22571;-74
2023/01/18 18:46:22;;;;;;;17.80;10.00;;;;;;;2.10;100.00;96911.55;220834;1281;22577;-75
2023/01/18 18:51:24;;;;;;;17.10;9.00;;;;;;;2.09;100.00;96907.71;220961;1281;22532;-74
2023/01/18 18:56:26;;;;;;;14.80;8.00;;;;;;;2.08;100.00;96916.86;220980;1281;22540;-74
2023/01/18 19:01:29;;;;;;;17.70;9.20;;;;;;;2.02;100.00;96935.14;221148;1281;22545;-73
2023/01/18 19:06:34;;;;;;;17.90;9.10;;;;;;;1.95;100.00;96947.58;220880;1281;22540;-74
2023/01/18 19:11:36;;;;;;;20.30;9.60;;;;;;;1.85;100.00;96952.08;220940;1281;22539;-79
2023/01/18 19:16:40;;;;;;;18.40;9.80;;;;;;;1.76;100.00;96965.77;221145;1281;23813;-74
2023/01/18 19:21:42;;;;;;;19.70;9.80;;;;;;;1.65;100.00;96974.34;221216;1281;22553;-76
2023/01/18 19:26:45;;;;;;;22.30;10.00;;;;;;;1.56;100.00;96974.65;221079;1270;22655;-75
2023/01/18 19:31:47;;;;;;;18.20;9.70;;;;;;;1.49;100.00;96974.33;220991;1281;22543;-74
2023/01/18 19:36:50;;;;;;;21.20;9.80;;;;;;;1.44;100.00;96972.30;221023;1279;24231;-74
2023/01/18 19:41:52;;;;;;;18.80;9.40;;;;;;;1.41;100.00;96977.27;220992;1280;25499;-74
2023/01/18 19:46:55;;;;;;;18.90;9.90;;;;;;;1.38;100.00;96984.41;220854;1281;22582;-75
2023/01/18 19:51:58;;;;;;;18.20;8.80;;;;;;;1.33;100.00;96982.44;220847;1281;22883;-74
2023/01/18 19:57:01;;;;;;;25.20;12.10;;;;;;;1.28;100.00;96986.48;220954;1281;22548;-74
2023/01/18 20:02:03;;;;;;;20.00;9.80;;;;;;;1.21;100.00;96978.48;220711;1281;25370;-75
2023/01/18 20:07:06;;;;;;;23.70;12.10;;;;;;;1.15;100.00;96985.84;220985;1281;131527;-74
2023/01/18 20:12:08;;;;;;;20.60;11.30;;;;;;;1.08;100.00;96995.70;220961;1281;22556;-74
2023/01/18 20:17:14;;;;;;;27.90;13.50;;;;;;;1.02;100.00;96996.30;221140;1281;22549;-74
2023/01/18 20:22:17;;;;;;;25.70;13.10;;;;;;;0.94;100.00;96997.95;221118;1281;22524;-73
2023/01/18 20:27:19;;;;;;;21.60;10.30;;;;;;;0.87;100.00;97012.11;221154;1279;24258;-73
2023/01/18 20:32:21;;;;;;;21.20;10.00;;;;;;;0.80;100.00;97028.79;220976;1281;22497;-74
2023/01/18 20:37:23;;;;;;;23.90;12.20;;;;;;;0.71;100.00;97037.66;220728;1281;24382;-74
2023/01/18 20:42:25;;;;;;;22.80;12.20;;;;;;;0.63;100.00;97033.46;220936;1281;24946;-75
2023/01/18 20:47:27;;;;;;;27.00;12.90;;;;;;;0.57;100.00;97046.37;220847;1281;24468;-74
2023/01/18 20:52:33;;;;;;;32.30;15.50;;;;;;;0.55;100.00;97071.19;220969;1281;22543;-74
2023/01/18 20:57:36;;;;;;;37.50;16.10;;;;;;;0.55;100.00;97070.27;220896;1263;22541;-74
2023/01/18 21:02:41;;;;;;;42.20;17.90;;;;;;;0.56;100.00;97061.45;220762;1281;22582;-76
2023/01/18 21:07:43;;;;;;;26.50;13.90;;;;;;;0.52;100.00;97049.50;220983;1281;22719;-74
2023/01/18 21:12:45;;;;;;;35.30;16.50;;;;;;;0.45;100.00;97040.70;221004;1281;25335;-73
2023/01/18 21:17:51;;;;;;;32.40;16.30;;;;;;;0.39;100.00;97050.23;221084;1281;23947;-73
2023/01/18 21:22:53;;;;;;;35.20;16.00;;;;;;;0.35;100.00;97048.91;220933;1276;24197;-73
2023/01/18 21:27:56;;;;;;;33.30;16.40;;;;;;;0.31;100.00;97041.50;221004;1281;22624;-74
2023/01/18 21:32:59;;;;;;;28.80;14.80;;;;;;;0.26;100.00;97044.81;221229;1281;24368;-74
2023/01/18 21:38:03;;;;;;;30.80;14.00;;;;;;;0.21;100.00;97050.71;220944;1281;22575;-73
2023/01/18 21:48:28;;;;;;;39.50;19.00;;;;;;;0.21;100.00;97090.86;220900;1276;22627;-74
2023/01/18 21:58:53;;;;;;;35.50;16.50;;;;;;;0.17;100.00;97111.02;220840;1281;22544;-74
2023/01/18 22:09:17;;;;;;;38.80;18.30;;;;;;;0.11;100.00;97156.30;221174;1281;22581;-74
2023/01/18 22:14:21;;;;;;;40.20;18.80;;;;;;;0.09;100.00;97155.29;221076;1280;22552;-73
2023/01/18 22:19:24;;;;;;;45.50;19.80;;;;;;;0.09;100.00;97147.13;221232;1281;23799;-73
2023/01/18 22:24:26;;;;;;;45.70;19.60;;;;;;;0.07;100.00;97148.13;221156;1281;22673;-74
2023/01/18 22:29:28;;;;;;;51.30;20.30;;;;;;;0.06;100.00;97159.98;221162;1281;22819;-74
2023/01/18 22:34:35;;;;;;;50.40;20.40;;;;;;;0.02;100.00;97174.80;221059;1281;22550;-75
2023/01/18 22:39:37;;;;;;;50.30;21.30;;;;;;;-0.01;100.00;97185.45;221033;1281;22608;-73
2023/01/18 22:44:40;;;;;;;50.20;18.30;;;;;;;-0.04;100.00;97204.44;220988;1281;24270;-74
2023/01/18 22:49:42;;;;;;;81.10;32.10;;;;;;;-0.05;100.00;97218.81;220901;1257;25368;-74
2023/01/18 22:54:45;;;;;;;85.10;35.30;;;;;;;-0.04;100.00;97223.81;220946;1277;22507;-73
2023/01/18 22:59:48;;;;;;;93.90;37.00;;;;;;;-0.02;100.00;97203.98;220877;1281;22603;-73
2023/01/18 23:04:50;;;;;;;94.70;37.20;;;;;;;-0.01;100.00;97201.30;221197;1278;22545;-73
2023/01/18 23:09:52;;;;;;;104.50;37.90;;;;;;;-0.01;100.00;97217.30;220586;1281;22649;-74
2023/01/18 23:20:15;;;;;;;115.60;41.70;;;;;;;-0.03;100.00;97220.03;221051;1280;22556;-73
2023/01/18 23:25:17;;;;;;;96.40;39.90;;;;;;;-0.03;100.00;97222.23;221041;1281;23770;-73
2023/01/18 23:30:25;;;;;;;119.80;43.00;;;;;;;-0.04;100.00;97220.91;221056;1281;22650;-74
2023/01/18 23:35:30;;;;;;;106.40;41.40;;;;;;;-0.08;100.00;97236.12;221076;1281;22602;-74
2023/01/18 23:56:43;;;;;;;97.70;36.80;;;;;;;-0.16;100.00;97227.81;220879;1281;23020;-73
